Time;durP1;ratioP1;P1;durP2;ratioP2;P2;SDS_P1;SDS_P2;PMS_P1;PMS_P2;Temp;Humidity;BMP_temperature;BMP_pressure;BME280_temperature;BME280_humidity;BME280_pressure;Samples;Min_cycle;Max_cycle;Signal;HPM_P1;HPM_P2
2021/01/28 00:00:46;;;;;;;30.98;11.32;;;;;;;22.78;13.91;97732.06;5040919;28;20048;-80
2021/01/28 00:03:14;;;;;;;32.83;13.77;;;;;;;22.61;14.16;97747.25;5041404;28;20501;-80
2021/01/28 00:05:42;;;;;;;35.58;14.95;;;;;;;22.42;14.28;97739.63;5041470;28;20120;-79
2021/01/28 00:08:09;;;;;;;31.73;12.77;;;;;;;22.50;14.32;97739.03;5044113;28;20032;-79
2021/01/28 00:10:36;;;;;;;28.85;12.75;;;;;;;22.69;14.14;97743.88;5044138;28;20037;-79
2021/01/28 00:13:04;;;;;;;32.83;13.20;;;;;;;22.19;14.32;97734.09;5043844;28;20548;-80
2021/01/28 00:15:32;;;;;;;29.60;12.10;;;;;;;21.56;15.10;97734.06;5043498;28;20046;-79
2021/01/28 00:18:00;;;;;;;32.08;12.82;;;;;;;21.72;14.88;97731.38;5044968;28;20119;-79
2021/01/28 00:20:34;;;;;;;29.13;11.98;;;;;;;21.42;15.26;97737.09;5042584;28;20029;-80
2021/01/28 00:23:00;;;;;;;29.98;11.43;;;;;;;21.43;15.20;97729.47;5040918;28;20056;-79
2021/01/28 00:25:27;;;;;;;33.60;13.55;;;;;;;21.43;15.16;97693.16;5039626;28;20036;-79
2021/01/28 00:27:54;;;;;;;32.03;13.32;;;;;;;21.76;14.88;97714.53;5042509;28;20063;-80
2021/01/28 00:30:33;;;;;;;33.05;12.40;;;;;;;21.31;15.14;97716.91;5042504;28;20045;-80
2021/01/28 00:32:59;;;;;;;32.58;13.70;;;;;;;21.78;14.76;97712.09;5041018;28;20052;-80
2021/01/28 00:35:30;;;;;;;32.75;12.55;;;;;;;21.90;14.71;97711.50;5039547;28;20660;-79
2021/01/28 00:37:56;;;;;;;32.17;12.98;;;;;;;21.59;14.84;97708.03;5040555;28;20044;-80
2021/01/28 00:40:25;;;;;;;32.40;12.35;;;;;;;21.59;15.06;97708.03;5040728;28;20052;-79
2021/01/28 00:42:52;;;;;;;31.40;12.40;;;;;;;21.73;14.79;97696.59;5039729;28;20087;-80
2021/01/28 00:45:24;;;;;;;33.28;14.85;;;;;;;21.52;14.93;97694.19;5044384;28;22529;-80
2021/01/28 00:47:50;;;;;;;30.27;12.27;;;;;;;21.39;15.22;97698.81;5042873;28;20502;-80
2021/01/28 00:50:22;;;;;;;28.02;10.82;;;;;;;21.60;15.00;97700.44;5049533;28;23208;-80
2021/01/28 00:52:48;;;;;;;35.03;15.02;;;;;;;21.75;14.92;97687.81;5042784;28;20124;-79
2021/01/28 00:55:15;;;;;;;44.90;18.10;;;;;;;21.61;14.85;97682.47;5041047;28;20083;-79
2021/01/28 00:57:41;;;;;;;36.92;13.82;;;;;;;21.60;15.05;97675.31;5043254;28;20159;-80
2021/01/28 01:00:16;;;;;;;30.58;11.60;;;;;;;21.86;14.87;97678.03;5042601;28;20083;-79
2021/01/28 01:02:43;;;;;;;27.75;11.27;;;;;;;22.14;14.44;97678.69;5042552;28;20115;-80
2021/01/28 01:05:11;;;;;;;30.52;11.90;;;;;;;22.15;14.36;97677.47;5041921;28;20494;-79
2021/01/28 01:07:37;;;;;;;28.80;11.65;;;;;;;22.06;14.50;97672.44;5041760;28;20025;-79
2021/01/28 01:10:07;;;;;;;25.33;10.93;;;;;;;22.12;14.50;97683.91;5039051;28;20444;-79
2021/01/28 01:12:33;;;;;;;29.52;12.55;;;;;;;22.23;14.45;97687.28;5041740;28;20056;-79
2021/01/28 01:14:59;;;;;;;28.98;12.10;;;;;;;22.41;14.34;97673.69;5042214;28;20052;-80
2021/01/28 01:17:26;;;;;;;29.60;12.75;;;;;;;22.20;14.39;97662.97;5039381;28;20056;-80
2021/01/28 01:19:52;;;;;;;28.60;11.73;;;;;;;22.03;14.58;97664.94;5041600;28;20475;-79
2021/01/28 01:22:18;;;;;;;31.05;12.38;;;;;;;21.94;14.56;97661.91;5040408;28;20443;-79
2021/01/28 01:24:44;;;;;;;25.48;11.13;;;;;;;21.75;14.91;97662.66;5041414;28;20491;-79
2021/01/28 01:27:10;;;;;;;30.92;13.15;;;;;;;21.56;15.09;97655.03;5041253;28;20498;-80
2021/01/28 01:29:36;;;;;;;26.42;11.07;;;;;;;21.47;15.17;97661.16;5039425;28;20398;-79
2021/01/28 01:32:03;;;;;;;22.88;8.63;;;;;;;21.71;14.96;97661.91;5040248;28;20111;-79
2021/01/28 01:34:29;;;;;;;23.73;9.35;;;;;;;22.00;14.69;97663.78;5042094;28;20040;-80
2021/01/28 01:36:55;;;;;;;27.45;11.20;;;;;;;21.95;14.66;97664.28;5041010;28;20029;-80
2021/01/28 01:39:21;;;;;;;26.15;10.32;;;;;;;21.61;14.97;97658.09;5041694;28;22027;-80
2021/01/28 01:41:47;;;;;;;23.33;10.30;;;;;;;21.70;14.90;97654.78;5040708;28;20037;-79
2021/01/28 01:44:13;;;;;;;20.35;8.65;;;;;;;21.91;14.84;97648.81;5041119;28;20155;-80
2021/01/28 01:46:39;;;;;;;30.60;12.65;;;;;;;22.03;14.54;97662.13;5041603;28;20091;-80
2021/01/28 01:49:11;;;;;;;26.67;11.23;;;;;;;22.22;14.57;97657.75;5042040;28;20030;-80
2021/01/28 01:51:41;;;;;;;27.52;12.15;;;;;;;22.39;14.27;97657.34;5040852;28;20029;-79
2021/01/28 01:54:11;;;;;;;31.83;11.70;;;;;;;21.92;14.93;97656.75;5038848;28;20071;-79
2021/01/28 01:56:43;;;;;;;25.25;9.90;;;;;;;21.98;14.74;97651.44;5042315;28;20086;-80
2021/01/28 01:59:16;;;;;;;33.33;13.55;;;;;;;22.07;14.52;97642.47;5039045;28;20071;-80
2021/01/28 02:01:47;;;;;;;25.67;12.23;;;;;;;21.47;15.10;97641.59;5039043;28;20037;-80
2021/01/28 02:04:15;;;;;;;36.75;16.20;;;;;;;21.29;15.33;97644.72;5042010;28;20490;-79
2021/01/28 02:06:53;;;;;;;31.27;12.15;;;;;;;21.51;15.04;97630.38;5039729;28;20438;-80
2021/01/28 02:09:20;;;;;;;33.85;14.00;;;;;;;21.79;14.83;97636.22;5040738;28;20124;-79
2021/01/28 02:11:47;;;;;;;32.13;12.57;;;;;;;21.95;14.64;97627.94;5041336;28;20465;-80
2021/01/28 02:14:17;;;;;;;25.92;11.35;;;;;;;22.10;14.43;97633.25;5037865;28;20037;-80
2021/01/28 02:16:53;;;;;;;29.02;13.45;;;;;;;21.88;14.66;97627.28;5037064;28;20033;-80
2021/01/28 02:19:49;;;;;;;32.83;13.18;;;;;;;21.08;15.10;97624.75;5041509;28;20041;-79
2021/01/28 02:22:29;;;;;;;35.08;14.45;;;;;;;20.99;15.14;97624.50;5037199;28;20037;-80
2021/01/28 02:25:19;;;;;;;27.65;10.85;;;;;;;21.03;15.20;97625.22;5046385;28;20394;-80
2021/01/28 02:27:46;;;;;;;25.98;10.00;;;;;;;21.14;15.47;97618.25;5038808;28;20061;-80
2021/01/28 02:30:20;;;;;;;26.70;9.60;;;;;;;21.07;14.76;97614.81;5041704;28;20054;-80
2021/01/28 02:32:48;;;;;;;28.60;12.43;;;;;;;20.96;14.78;97620.53;5037248;28;20120;-80
2021/01/28 02:35:15;;;;;;;28.58;11.10;;;;;;;20.83;14.74;97619.56;5038256;28;20027;-80
2021/01/28 02:37:42;;;;;;;24.73;10.93;;;;;;;20.50;15.02;97615.69;5038780;28;22822;-80
2021/01/28 02:40:09;;;;;;;26.83;11.25;;;;;;;20.37;14.89;97628.66;5041918;28;20048;-80
2021/01/28 02:42:36;;;;;;;26.27;9.77;;;;;;;20.42;14.98;97622.59;5041579;28;20046;-80
2021/01/28 02:45:05;;;;;;;23.15;9.80;;;;;;;20.61;14.65;97621.91;5040156;28;20057;-80
2021/01/28 02:47:31;;;;;;;29.75;10.02;;;;;;;20.41;14.72;97625.81;5053157;28;20090;-80
2021/01/28 02:49:57;;;;;;;27.70;11.38;;;;;;;20.35;14.99;97613.56;5037205;28;20041;-80
2021/01/28 02:52:23;;;;;;;26.45;9.85;;;;;;;20.04;15.28;97607.16;5040412;28;20036;-80
2021/01/28 02:54:53;;;;;;;27.23;10.52;;;;;;;20.06;15.22;97603.97;5039876;28;20026;-80
2021/01/28 02:57:19;;;;;;;24.95;9.00;;;;;;;20.08;15.19;97598.75;5039474;28;20083;-80
2021/01/28 02:59:46;;;;;;;26.58;10.93;;;;;;;20.24;15.10;97587.81;5040292;28;20477;-80
2021/01/28 03:02:17;;;;;;;23.33;10.05;;;;;;;20.35;14.71;97597.59;5043309;28;20516;-80
2021/01/28 03:04:46;;;;;;;;;;;;;;;20.14;15.02;97600.66;5044937;28;20021;-80
2021/01/28 03:07:14;;;;;;;27.58;10.02;;;;;;;20.45;14.34;97602.22;5044351;28;19959;-80
2021/01/28 03:09:40;;;;;;;22.02;8.93;;;;;;;20.40;14.05;97593.53;5044164;28;20029;-80
2021/01/28 03:12:08;;;;;;;24.23;9.43;;;;;;;20.26;14.05;97597.31;5048673;28;20029;-80
2021/01/28 03:14:35;;;;;;;26.45;9.90;;;;;;;19.91;14.23;97590.22;5047238;28;20470;-80
2021/01/28 03:17:02;;;;;;;25.55;9.52;;;;;;;19.55;14.86;97591.88;5051897;28;20087;-79
2021/01/28 03:19:28;;;;;;;25.05;9.35;;;;;;;19.60;14.53;97580.28;5050663;28;20037;-79
2021/01/28 03:21:54;;;;;;;23.80;9.50;;;;;;;19.14;14.93;97582.72;5047512;28;20537;-80
2021/01/28 03:24:20;;;;;;;24.63;9.80;;;;;;;19.05;15.36;97580.44;5048075;28;20036;-79
2021/01/28 03:26:46;;;;;;;23.63;8.82;;;;;;;19.22;15.47;97575.88;5049782;28;20029;-79
2021/01/28 03:29:14;;;;;;;18.60;7.43;;;;;;;19.31;15.30;97573.41;5047901;28;20044;-80
2021/01/28 03:31:41;;;;;;;20.95;8.75;;;;;;;19.50;15.01;97569.25;5049193;28;20553;-79
2021/01/28 03:34:07;;;;;;;21.25;7.47;;;;;;;19.55;14.97;97568.78;5036125;28;20091;-79
2021/01/28 03:36:33;;;;;;;28.90;9.60;;;;;;;19.20;14.96;97569.94;5033658;28;20037;-79
2021/01/28 03:39:00;;;;;;;25.05;10.02;;;;;;;18.63;15.56;97567.69;5034346;28;20036;-79
2021/01/28 03:41:26;;;;;;;31.70;10.15;;;;;;;18.38;15.93;97569.06;5046338;28;20037;-79
2021/01/28 03:43:52;;;;;;;19.00;7.78;;;;;;;18.69;15.42;97561.69;5046039;28;20033;-79
2021/01/28 03:46:18;;;;;;;18.65;8.07;;;;;;;18.95;15.44;97563.84;5050910;28;20040;-80
2021/01/28 03:48:44;;;;;;;22.02;8.15;;;;;;;19.29;14.68;97564.69;5046305;28;20032;-79
2021/01/28 03:51:10;;;;;;;20.75;7.85;;;;;;;19.47;14.57;97564.50;5047431;28;20036;-80
2021/01/28 03:53:36;;;;;;;22.88;8.65;;;;;;;19.47;14.16;97565.28;5046950;28;20032;-80
2021/01/28 03:56:02;;;;;;;20.70;8.82;;;;;;;19.61;14.02;97565.13;5049431;28;20033;-79
2021/01/28 03:58:28;;;;;;;24.50;9.15;;;;;;;19.53;13.75;97565.63;5051434;28;20036;-79
2021/01/28 04:00:55;;;;;;;23.58;9.05;;;;;;;19.18;14.45;97559.22;5049573;28;20029;-80
2021/01/28 04:03:21;;;;;;;18.10;7.28;;;;;;;18.90;14.62;97547.59;5046080;28;20033;-79
2021/01/28 04:05:47;;;;;;;20.92;9.25;;;;;;;19.10;14.22;97543.03;5046387;28;20474;-79
2021/01/28 04:08:13;;;;;;;24.83;10.18;;;;;;;18.74;14.54;97552.94;5046107;28;20036;-79
2021/01/28 04:10:39;;;;;;;24.92;9.43;;;;;;;18.67;14.39;97548.19;5047148;28;20516;-79
2021/01/28 04:13:06;;;;;;;23.08;9.68;;;;;;;18.65;14.50;97558.16;5050678;28;20025;-79
2021/01/28 04:15:33;;;;;;;22.25;9.88;;;;;;;18.20;15.15;97560.06;5049486;28;20061;-79
2021/01/28 04:18:00;;;;;;;22.45;10.05;;;;;;;18.02;15.40;97556.63;5045534;28;20399;-79
2021/01/28 04:20:29;;;;;;;19.38;8.80;;;;;;;18.25;15.40;97552.06;5046358;28;20107;-79
2021/01/28 04:22:56;;;;;;;21.20;8.90;;;;;;;18.62;14.73;97543.09;5049405;28;20033;-79
2021/01/28 04:25:23;;;;;;;22.50;8.90;;;;;;;18.61;15.00;97531.19;5049798;28;20525;-79
2021/01/28 04:27:50;;;;;;;22.27;9.60;;;;;;;18.47;15.19;97530.50;5046533;28;20116;-79
2021/01/28 04:30:23;;;;;;;17.85;6.90;;;;;;;18.28;15.00;97533.78;5046094;28;20037;-79
2021/01/28 04:32:49;;;;;;;19.95;8.02;;;;;;;18.44;14.81;97526.50;5042121;28;20128;-79
2021/01/28 04:35:16;;;;;;;25.63;9.45;;;;;;;18.71;14.45;97528.72;5042733;28;20108;-79
2021/01/28 04:37:43;;;;;;;19.35;8.85;;;;;;;18.75;14.55;97524.69;5049940;28;20100;-79
2021/01/28 04:40:31;;;;;;;16.30;6.95;;;;;;;18.92;14.44;97520.97;5052268;28;20037;-80
2021/01/28 04:43:00;;;;;;;21.00;8.55;;;;;;;18.87;14.54;97521.41;5039198;28;20037;-80
2021/01/28 04:45:31;;;;;;;23.30;9.05;;;;;;;18.78;14.22;97509.97;5050893;28;20025;-79
2021/01/28 04:48:05;;;;;;;27.95;9.68;;;;;;;18.71;14.19;97503.69;5055671;28;20116;-79
2021/01/28 04:50:36;;;;;;;19.80;9.23;;;;;;;18.15;14.95;97505.72;5052695;28;20029;-79
2021/01/28 04:53:07;;;;;;;;;;;;;;;17.68;15.37;97500.84;5052998;28;20044;-79
2021/01/28 04:55:48;;;;;;;21.98;9.38;;;;;;;17.87;15.10;97512.25;5052303;28;19970;-80
2021/01/28 04:58:15;;;;;;;24.83;9.88;;;;;;;18.12;14.93;97502.94;5052022;28;20051;-79
2021/01/28 05:00:41;;;;;;;25.65;9.15;;;;;;;18.08;14.73;97503.00;5051271;28;20029;-79
2021/01/28 05:03:15;;;;;;;24.35;8.88;;;;;;;18.02;14.70;97509.41;5053599;28;20063;-79
2021/01/28 05:05:42;;;;;;;25.45;10.18;;;;;;;18.03;14.70;97499.84;5052136;28;20040;-79
2021/01/28 05:08:08;;;;;;;19.50;8.23;;;;;;;18.07;15.01;97501.41;5052463;28;20377;-79
2021/01/28 05:10:39;;;;;;;21.15;9.32;;;;;;;18.26;14.12;97497.28;5049776;28;20034;-79
2021/01/28 05:13:06;;;;;;;25.27;8.98;;;;;;;18.16;14.14;97487.03;5045014;28;20021;-79
2021/01/28 05:15:50;;;;;;;19.60;7.95;;;;;;;18.20;14.04;97480.28;5041744;28;20063;-79
2021/01/28 05:18:42;;;;;;;23.42;9.50;;;;;;;18.30;13.63;97482.16;5039332;28;20421;-79
2021/01/28 05:21:17;;;;;;;18.35;8.57;;;;;;;17.92;14.20;97481.25;5040937;28;20053;-79
2021/01/28 05:23:45;;;;;;;21.00;9.18;;;;;;;17.69;14.31;97481.00;5039682;28;20404;-79
2021/01/28 05:26:37;;;;;;;22.08;9.23;;;;;;;17.81;14.66;97482.53;5040520;28;20479;-79
2021/01/28 05:29:24;;;;;;;21.20;7.78;;;;;;;17.71;14.59;97483.41;5040587;28;20029;-79
2021/01/28 05:31:52;;;;;;;21.27;8.93;;;;;;;17.87;15.01;97470.59;5040779;28;20056;-79
2021/01/28 05:34:36;;;;;;;24.50;9.68;;;;;;;17.82;14.87;97481.34;5039544;28;20025;-79
2021/01/28 05:37:06;;;;;;;20.13;8.30;;;;;;;17.65;14.96;97476.69;5041745;28;20033;-80
2021/01/28 05:39:35;;;;;;;23.95;9.27;;;;;;;17.34;14.99;97483.94;5040664;28;20044;-80
2021/01/28 05:42:14;;;;;;;24.73;7.88;;;;;;;17.32;15.55;97480.00;5046194;28;20037;-80
2021/01/28 05:44:40;;;;;;;18.98;7.82;;;;;;;17.60;14.99;97468.78;5053378;28;20362;-79
2021/01/28 05:47:20;;;;;;;16.20;7.05;;;;;;;17.76;14.73;97464.31;5047356;28;20483;-80
2021/01/28 05:49:47;;;;;;;16.03;7.23;;;;;;;18.00;14.24;97467.31;5038986;28;20029;-79
2021/01/28 05:52:24;;;;;;;21.58;7.05;;;;;;;18.20;13.87;97463.63;5049749;28;20025;-80
2021/01/28 05:55:04;;;;;;;21.52;8.07;;;;;;;18.23;13.49;97453.66;5043217;28;20029;-80
2021/01/28 05:57:45;;;;;;;17.07;6.77;;;;;;;18.38;13.75;97455.13;5047992;28;20094;-81
2021/01/28 06:00:30;;;;;;;17.73;7.88;;;;;;;18.18;13.95;97443.00;5044719;28;20227;-80
2021/01/28 06:03:21;;;;;;;23.38;8.13;;;;;;;17.98;13.92;97444.72;5040599;28;20040;-81
2021/01/28 06:06:09;;;;;;;18.83;8.35;;;;;;;17.77;14.07;97438.13;5037046;28;20029;-80
2021/01/28 06:09:03;;;;;;;22.67;8.23;;;;;;;17.72;14.15;97432.22;5038713;28;20450;-80
2021/01/28 06:11:42;;;;;;;15.57;7.93;;;;;;;17.57;14.12;97439.88;5043661;28;20509;-80
2021/01/28 06:14:35;;;;;;;16.10;7.88;;;;;;;17.70;14.71;97435.41;5037510;28;20026;-81
2021/01/28 06:17:26;;;;;;;24.98;10.13;;;;;;;17.35;14.67;97443.13;5052520;28;20107;-80
2021/01/28 06:20:31;;;;;;;26.05;10.88;;;;;;;16.88;15.26;97448.06;5039513;28;20076;-80
2021/01/28 06:23:06;;;;;;;22.05;9.18;;;;;;;16.92;15.61;97443.28;5038179;28;20037;-79
2021/01/28 06:25:53;;;;;;;24.40;10.32;;;;;;;16.91;15.27;97441.72;5038892;28;20441;-80
2021/01/28 06:28:52;;;;;;;26.90;11.35;;;;;;;17.21;15.18;97450.31;5036578;28;20033;-80
2021/01/28 06:31:49;;;;;;;27.75;12.30;;;;;;;17.77;14.77;97438.13;5037238;28;20050;-80
2021/01/28 06:34:44;;;;;;;31.05;13.05;;;;;;;18.25;14.13;97429.03;5037672;28;20057;-79
2021/01/28 06:37:45;;;;;;;22.85;10.65;;;;;;;18.32;13.69;97421.41;5058606;28;20057;-81
2021/01/28 06:40:20;;;;;;;19.20;9.88;;;;;;;18.43;13.29;97418.53;5038263;28;20067;-81
2021/01/28 06:42:54;;;;;;;22.98;9.20;;;;;;;18.39;13.48;97421.34;5056081;28;20086;-80
2021/01/28 06:45:26;;;;;;;22.00;8.98;;;;;;;18.27;13.45;97430.22;5066557;28;20029;-81
2021/01/28 06:47:59;;;;;;;22.40;10.07;;;;;;;18.47;13.42;97424.88;5057300;28;20438;-80
2021/01/28 06:50:31;;;;;;;24.13;9.90;;;;;;;18.53;13.62;97426.00;5050311;28;20082;-79
2021/01/28 06:53:09;;;;;;;26.58;11.35;;;;;;;18.62;13.53;97421.53;5053327;28;20060;-80
2021/01/28 06:55:58;;;;;;;23.10;9.23;;;;;;;18.42;13.77;97414.97;5039750;28;20335;-79
2021/01/28 06:58:42;;;;;;;23.80;9.80;;;;;;;18.65;13.96;97419.16;5040555;28;20034;-80
2021/01/28 07:01:33;;;;;;;20.88;8.93;;;;;;;18.63;13.89;97412.00;5053857;28;20029;-80
2021/01/28 07:04:23;;;;;;;23.02;9.57;;;;;;;18.71;13.60;97409.16;5051178;28;20021;-80
2021/01/28 07:07:14;;;;;;;19.90;8.80;;;;;;;18.83;13.73;97416.97;5052873;28;20068;-80
2021/01/28 07:10:02;;;;;;;22.88;10.38;;;;;;;18.50;14.21;97410.16;5045533;28;20046;-80
2021/01/28 07:12:42;;;;;;;22.83;10.07;;;;;;;18.46;14.53;97403.88;5067148;28;20052;-80
2021/01/28 07:15:11;;;;;;;26.60;10.77;;;;;;;18.81;14.24;97397.88;5041194;28;20116;-80
2021/01/28 07:17:53;;;;;;;27.55;10.98;;;;;;;18.91;14.06;97399.75;5039580;28;20026;-80
2021/01/28 07:20:33;;;;;;;23.58;10.18;;;;;;;19.23;13.99;97399.34;5042279;28;20033;-80
2021/01/28 07:23:28;;;;;;;24.77;9.73;;;;;;;19.26;14.37;97401.31;5036853;28;20395;-80
2021/01/28 07:26:18;;;;;;;23.67;9.40;;;;;;;19.07;14.45;97385.25;5036755;28;20662;-79
2021/01/28 07:28:46;;;;;;;25.40;10.35;;;;;;;19.28;14.01;97387.75;5038539;28;20040;-80
2021/01/28 07:31:23;;;;;;;29.73;11.20;;;;;;;19.38;14.08;97380.50;5038994;28;20053;-80
2021/01/28 07:34:05;;;;;;;24.20;10.80;;;;;;;19.43;14.15;97378.03;5042919;28;20052;-80
2021/01/28 07:36:31;;;;;;;29.67;13.10;;;;;;;19.18;14.44;97372.00;5054441;28;20038;-80
2021/01/28 07:38:59;;;;;;;28.00;11.18;;;;;;;18.86;14.79;97369.63;5057039;28;20041;-80
2021/01/28 07:41:54;;;;;;;20.33;9.93;;;;;;;18.65;15.20;97360.78;5063787;28;20045;-80
2021/01/28 07:44:28;;;;;;;19.80;10.05;;;;;;;18.85;14.87;97356.16;5049875;28;20060;-80
2021/01/28 07:46:58;;;;;;;28.48;11.93;;;;;;;19.08;14.67;97353.44;5053196;28;20108;-80
2021/01/28 07:49:27;;;;;;;35.72;13.60;;;;;;;19.16;14.75;97355.72;5052527;28;20367;-80
2021/01/28 07:52:19;;;;;;;41.85;15.88;;;;;;;18.63;15.41;97350.84;5052527;28;20032;-80
2021/01/28 07:54:49;;;;;;;43.70;15.35;;;;;;;18.13;15.69;97348.97;5047246;28;20041;-80
2021/01/28 07:57:41;;;;;;;42.67;13.70;;;;;;;17.69;16.18;97342.22;5043226;28;20025;-80
2021/01/28 08:00:14;;;;;;;43.95;15.18;;;;;;;17.71;16.17;97336.28;5052066;28;20033;-80
2021/01/28 08:02:41;;;;;;;31.45;13.15;;;;;;;18.08;15.93;97327.19;5034925;28;20415;-80
2021/01/28 08:05:34;;;;;;;36.75;13.90;;;;;;;18.47;15.79;97324.81;5036510;28;20104;-79
2021/01/28 08:08:10;;;;;;;38.85;17.60;;;;;;;18.88;15.46;97313.59;5038604;28;20029;-80
2021/01/28 08:10:39;;;;;;;31.95;13.18;;;;;;;19.25;15.15;97310.69;5056315;28;20070;-80
2021/01/28 08:13:20;;;;;;;35.95;13.98;;;;;;;19.13;15.09;97305.69;5053507;28;20040;-81
2021/01/28 08:15:47;;;;;;;;;;;;;;;19.31;15.16;97303.44;5042528;28;20053;-81
2021/01/28 08:18:30;;;;;;;24.77;10.85;;;;;;;19.52;14.98;97289.22;5043723;28;19959;-80
2021/01/28 08:21:07;;;;;;;42.38;22.75;;;;;;;19.28;14.81;97282.78;5044568;28;20033;-80
2021/01/28 08:23:34;;;;;;;39.20;18.88;;;;;;;19.21;15.02;97282.09;5044111;28;20037;-80
2021/01/28 08:26:02;;;;;;;28.20;14.23;;;;;;;19.60;15.04;97285.09;5042137;28;20041;-80
2021/01/28 08:28:35;;;;;;;19.90;8.93;;;;;;;19.85;14.91;97285.47;5048790;28;20037;-80
2021/01/28 08:31:24;;;;;;;26.13;11.18;;;;;;;19.72;14.90;97287.25;5060257;28;20512;-80
2021/01/28 08:33:58;;;;;;;18.58;9.02;;;;;;;19.79;14.84;97289.16;5047395;28;20029;-80
2021/01/28 08:36:42;;;;;;;19.55;9.38;;;;;;;19.79;15.03;97292.72;5046845;28;20037;-80
2021/01/28 08:39:17;;;;;;;20.08;9.15;;;;;;;19.86;14.90;97284.25;5047741;28;20036;-80
2021/01/28 08:41:46;;;;;;;28.67;12.10;;;;;;;17.76;16.59;97291.41;5047796;28;20499;-80
2021/01/28 08:44:15;;;;;;;19.30;8.77;;;;;;;18.84;16.00;97293.38;5046139;28;20029;-81
2021/01/28 08:46:43;;;;;;;19.20;8.85;;;;;;;19.04;15.83;97288.72;5044938;28;20171;-81
2021/01/28 08:49:16;;;;;;;16.27;7.22;;;;;;;19.61;15.47;97294.22;5058170;28;20070;-80
2021/01/28 08:51:58;;;;;;;20.08;7.75;;;;;;;19.46;15.78;97290.13;5051820;28;20033;-80
2021/01/28 08:54:32;;;;;;;14.70;6.88;;;;;;;20.11;15.32;97289.38;5046037;28;20041;-80
2021/01/28 08:56:59;;;;;;;13.73;6.15;;;;;;;20.12;14.99;97290.94;5046922;28;20044;-80
2021/01/28 08:59:59;;;;;;;14.90;6.70;;;;;;;20.89;14.63;97294.19;5058611;28;20044;-80
2021/01/28 09:02:31;;;;;;;18.33;8.30;;;;;;;21.07;14.45;97296.63;5045027;28;20163;-80
2021/01/28 09:05:12;;;;;;;14.10;6.72;;;;;;;21.40;14.21;97292.66;5053772;28;20036;-80
2021/01/28 09:08:00;;;;;;;15.30;6.93;;;;;;;21.82;14.11;97274.84;5044761;28;20061;-80
2021/01/28 09:10:41;;;;;;;11.32;5.47;;;;;;;21.97;13.86;97283.69;5049810;28;20048;-80
2021/01/28 09:13:26;;;;;;;17.45;6.55;;;;;;;22.10;14.10;97278.19;5045670;28;20138;-80
2021/01/28 09:16:13;;;;;;;12.10;5.82;;;;;;;22.27;13.49;97269.28;5039620;28;20028;-79
2021/01/28 09:18:47;;;;;;;10.82;5.35;;;;;;;22.61;13.49;97269.53;5044907;28;20399;-80
2021/01/28 09:21:17;;;;;;;12.93;6.00;;;;;;;22.61;13.75;97261.16;5049960;28;20040;-80
2021/01/28 09:24:04;;;;;;;11.75;5.43;;;;;;;22.49;13.27;97261.09;5067322;28;20021;-80
2021/01/28 09:26:37;;;;;;;10.50;5.65;;;;;;;22.67;13.47;97250.22;5054651;28;20017;-80
2021/01/28 09:29:37;;;;;;;11.68;5.45;;;;;;;22.32;13.20;97245.59;5048925;28;20036;-80
2021/01/28 09:32:17;;;;;;;15.10;6.75;;;;;;;21.81;14.02;97239.75;5044064;28;20072;-80
2021/01/28 09:34:43;;;;;;;10.43;5.15;;;;;;;22.24;13.62;97228.22;5041418;28;20033;-80
2021/01/28 09:37:22;;;;;;;7.85;4.13;;;;;;;22.02;13.79;97224.47;5046576;28;20040;-80
2021/01/28 09:39:53;;;;;;;9.32;4.75;;;;;;;22.76;13.93;97213.16;5055395;28;20060;-80
2021/01/28 09:42:21;;;;;;;;;;;;;;;22.87;13.40;97211.59;5043148;28;20028;-80
2021/01/28 09:44:51;;;;;;;8.85;4.68;;;;;;;23.02;13.58;97203.56;5049221;28;19953;-80
2021/01/28 09:47:22;;;;;;;10.52;4.90;;;;;;;23.01;13.43;97199.22;5041365;28;20422;-80
2021/01/28 09:49:50;;;;;;;;;;;;;;;23.19;13.06;97197.41;5042643;28;20037;-80
2021/01/28 09:52:24;;;;;;;13.35;5.40;;;;;;;23.19;13.34;97193.81;5048363;28;19957;-80
2021/01/28 09:54:53;;;;;;;9.38;3.92;;;;;;;23.09;13.72;97187.31;5046210;28;20095;-80
2021/01/28 09:57:19;;;;;;;6.70;3.20;;;;;;;23.61;13.69;97186.84;5042464;28;20037;-80
2021/01/28 09:59:46;;;;;;;6.75;3.60;;;;;;;23.46;13.34;97182.13;5043603;28;20041;-80
2021/01/28 10:02:18;;;;;;;6.22;2.90;;;;;;;23.29;13.87;97181.50;5041181;28;20040;-80
2021/01/28 10:04:45;;;;;;;4.72;2.17;;;;;;;23.02;13.82;97162.34;5048457;28;20083;-80
2021/01/28 10:07:12;;;;;;;5.45;2.22;;;;;;;22.87;14.44;97172.41;5043070;28;20034;-80
2021/01/28 10:09:38;;;;;;;3.20;2.00;;;;;;;22.91;14.07;97172.31;5050227;28;20101;-81
2021/01/28 10:12:06;;;;;;;2.97;1.40;;;;;;;23.30;14.12;97167.03;5039663;28;20037;-80
2021/01/28 10:14:32;;;;;;;4.60;2.35;;;;;;;22.35;15.27;97156.03;5043484;28;20025;-80
2021/01/28 10:16:58;;;;;;;7.18;2.70;;;;;;;23.01;14.02;97148.81;5039617;28;20128;-80
2021/01/28 10:19:24;;;;;;;4.18;2.28;;;;;;;23.46;14.39;97140.91;5052098;28;20445;-81
2021/01/28 10:21:50;;;;;;;3.83;2.67;;;;;;;21.86;15.00;97137.88;5043047;28;20388;-81
2021/01/28 10:24:16;;;;;;;4.07;2.13;;;;;;;23.30;14.31;97130.63;5054280;28;20056;-81
2021/01/28 10:26:42;;;;;;;4.80;2.08;;;;;;;22.14;14.94;97119.50;5054878;28;20039;-81
2021/01/28 10:29:08;;;;;;;3.13;1.77;;;;;;;23.10;14.47;97130.09;5053438;28;20037;-81
2021/01/28 10:31:35;;;;;;;3.70;2.20;;;;;;;23.65;14.09;97128.63;5048905;28;20048;-81
2021/01/28 10:34:01;;;;;;;9.45;3.55;;;;;;;23.58;13.84;97117.66;5041372;28;20037;-81
2021/01/28 10:36:27;;;;;;;10.75;4.28;;;;;;;24.45;13.50;97104.44;5037442;28;20104;-81
2021/01/28 10:38:53;;;;;;;5.82;2.30;;;;;;;24.78;13.38;97106.81;5043295;28;20397;-81
2021/01/28 10:41:20;;;;;;;5.05;2.10;;;;;;;24.68;13.34;97095.50;5041364;28;20026;-81
2021/01/28 10:43:46;;;;;;;4.10;2.65;;;;;;;25.02;13.06;97088.94;5045131;28;20044;-81
2021/01/28 10:46:12;;;;;;;4.35;1.95;;;;;;;25.29;12.73;97091.81;5051009;28;20417;-81
2021/01/28 10:48:38;;;;;;;2.28;1.60;;;;;;;25.73;13.34;97086.72;5041092;28;20045;-82
2021/01/28 10:51:05;;;;;;;2.45;1.50;;;;;;;25.85;12.85;97077.34;5040169;28;20029;-81
2021/01/28 10:53:34;;;;;;;3.28;1.55;;;;;;;25.68;12.51;97080.91;5038866;28;20512;-82
2021/01/28 10:56:00;;;;;;;3.33;1.85;;;;;;;25.65;12.74;97082.63;5044884;28;20025;-81
2021/01/28 10:58:26;;;;;;;4.90;2.13;;;;;;;25.77;12.60;97067.66;5043408;28;20033;-82
2021/01/28 11:00:54;;;;;;;4.28;2.25;;;;;;;25.56;13.07;97068.59;5041588;28;20057;-81
2021/01/28 11:03:20;;;;;;;5.38;2.90;;;;;;;25.12;13.39;97067.25;5039984;28;20078;-81
2021/01/28 11:05:46;;;;;;;8.20;4.03;;;;;;;25.29;12.94;97066.53;5039213;28;20025;-82
2021/01/28 11:08:12;;;;;;;7.63;2.88;;;;;;;25.48;12.89;97056.09;5043712;28;20039;-82
2021/01/28 11:10:39;;;;;;;8.18;2.80;;;;;;;25.80;12.74;97057.50;5041505;28;20496;-82
2021/01/28 11:13:05;;;;;;;4.85;2.17;;;;;;;25.51;12.98;97045.97;5042551;28;20063;-82
2021/01/28 11:15:37;;;;;;;8.98;4.07;;;;;;;24.60;13.57;97035.28;5042946;28;20030;-81
2021/01/28 11:18:08;;;;;;;6.35;3.17;;;;;;;24.96;13.24;97045.06;5054990;28;20488;-81
2021/01/28 11:20:35;;;;;;;6.13;2.67;;;;;;;24.63;13.80;97033.56;5044334;28;20068;-83
2021/01/28 11:23:01;;;;;;;5.45;2.85;;;;;;;25.52;13.58;97025.81;5046178;28;20040;-81
2021/01/28 11:25:29;;;;;;;11.07;4.80;;;;;;;25.19;13.58;97020.00;5046671;28;20060;-81
2021/01/28 11:27:55;;;;;;;8.45;3.88;;;;;;;25.39;13.64;97020.31;5043372;28;20037;-80
2021/01/28 11:30:25;;;;;;;6.00;2.13;;;;;;;25.04;14.27;97009.84;5041689;28;20059;-81
2021/01/28 11:32:51;;;;;;;6.05;3.45;;;;;;;24.23;14.33;97004.72;5046751;28;20522;-80
2021/01/28 11:35:21;;;;;;;6.10;3.55;;;;;;;25.07;14.08;96997.66;5046428;28;20025;-80
2021/01/28 11:37:48;;;;;;;8.70;4.43;;;;;;;25.88;13.69;96996.88;5042705;28;20029;-80
2021/01/28 11:40:19;;;;;;;4.72;2.67;;;;;;;25.57;13.67;97002.69;5042798;28;20037;-80
2021/01/28 11:42:45;;;;;;;5.47;2.30;;;;;;;25.82;13.61;96996.72;5039546;28;20044;-81
2021/01/28 11:45:13;;;;;;;2.53;1.33;;;;;;;25.96;13.49;96981.22;5044149;28;20025;-80
2021/01/28 11:47:39;;;;;;;3.63;2.13;;;;;;;26.16;13.33;96980.72;5041295;28;20175;-80